createdAt,value
2022-11-16T00:01:02.598Z,16.67
2022-11-16T00:03:33.331Z,17.20
2022-11-16T00:06:04.230Z,16.33
2022-11-16T00:08:34.531Z,16.17
2022-11-16T00:11:08.094Z,16.60
2022-11-16T00:13:37.812Z,16.07
2022-11-16T00:16:07.561Z,15.50
2022-11-16T00:18:37.555Z,15.83
2022-11-16T00:21:07.099Z,14.80
2022-11-16T00:23:38.579Z,15.93
2022-11-16T00:26:08.578Z,15.50
2022-11-16T00:28:38.153Z,15.77
2022-11-16T00:31:08.567Z,15.10
2022-11-16T00:33:40.190Z,15.70
2022-11-16T00:36:12.406Z,14.30
2022-11-16T00:38:41.851Z,14.00
2022-11-16T00:41:11.150Z,13.67
2022-11-16T00:43:40.189Z,15.50
2022-11-16T00:46:10.467Z,14.97
2022-11-16T00:48:40.800Z,14.23
2022-11-16T00:51:09.861Z,15.07
2022-11-16T00:53:38.961Z,15.40
2022-11-16T00:56:08.757Z,15.00
2022-11-16T00:58:43.739Z,14.50
2022-11-16T01:01:13.775Z,14.60
2022-11-16T01:03:43.822Z,13.70
2022-11-16T01:06:15.048Z,15.10
2022-11-16T01:08:44.861Z,14.33
2022-11-16T01:11:33.126Z,14.03
2022-11-16T01:14:03.689Z,13.70
2022-11-16T01:16:32.688Z,14.47
2022-11-16T01:19:03.953Z,13.47
2022-11-16T01:21:32.934Z,14.20
2022-11-16T01:24:02.179Z,13.77
2022-11-16T01:26:31.411Z,14.73
2022-11-16T01:29:00.761Z,11.93
2022-11-16T01:31:33.618Z,14.77
2022-11-16T01:34:06.463Z,14.03
2022-11-16T01:36:36.716Z,15.60
2022-11-16T01:39:06.425Z,15.03
2022-11-16T01:42:08.261Z,14.73
2022-11-16T01:45:06.632Z,15.67
2022-11-16T01:47:36.376Z,14.77
2022-11-16T01:50:11.350Z,14.07
2022-11-16T01:52:47.986Z,14.20
2022-11-16T01:55:17.798Z,14.77
2022-11-16T01:57:59.901Z,14.67
2022-11-16T02:00:30.658Z,15.20
2022-11-16T02:03:20.223Z,13.77
2022-11-16T02:06:04.829Z,14.03
2022-11-16T02:09:00.577Z,15.33
2022-11-16T02:11:40.792Z,14.40
2022-11-16T02:14:20.795Z,15.03
2022-11-16T02:16:57.368Z,15.73
2022-11-16T02:19:57.317Z,15.50
2022-11-16T02:22:40.391Z,16.27
2022-11-16T02:25:14.036Z,16.17
2022-11-16T02:28:03.559Z,16.07
2022-11-16T02:30:33.731Z,16.27
2022-11-16T02:33:05.221Z,16.07
2022-11-16T02:35:40.035Z,16.73
2022-11-16T02:38:12.930Z,17.40
2022-11-16T02:40:44.615Z,16.67
2022-11-16T02:43:21.218Z,17.40
2022-11-16T02:45:52.771Z,18.00
2022-11-16T02:48:24.046Z,18.17
2022-11-16T02:50:54.551Z,19.83
2022-11-16T02:53:25.327Z,18.53
2022-11-16T02:55:57.770Z,19.77
2022-11-16T02:58:27.510Z,18.47
2022-11-16T03:01:01.764Z,19.83
2022-11-16T03:03:33.883Z,18.90
2022-11-16T03:06:06.506Z,20.03
2022-11-16T03:08:37.432Z,19.30
2022-11-16T03:11:26.707Z,20.23
2022-11-16T03:13:59.266Z,19.23
2022-11-16T03:16:33.360Z,20.07
2022-11-16T03:19:04.647Z,22.20
2022-11-16T03:21:38.266Z,21.27
2022-11-16T03:24:09.125Z,22.87
2022-11-16T03:26:45.638Z,23.70
2022-11-16T03:29:18.770Z,23.97
2022-11-16T03:31:51.754Z,22.47
2022-11-16T03:34:24.660Z,24.37
2022-11-16T03:36:54.748Z,24.40
2022-11-16T03:39:27.435Z,22.10
2022-11-16T03:41:56.987Z,23.67
2022-11-16T03:44:25.930Z,23.10
2022-11-16T03:46:56.328Z,22.87
2022-11-16T03:49:26.060Z,24.10
2022-11-16T03:51:56.392Z,24.17
2022-11-16T03:54:24.972Z,21.47
2022-11-16T03:56:53.776Z,21.90
2022-11-16T03:59:23.482Z,22.40
2022-11-16T04:01:52.671Z,23.83
2022-11-16T04:04:40.616Z,24.60
2022-11-16T04:07:28.741Z,24.73
2022-11-16T04:10:15.448Z,23.50
2022-11-16T04:13:03.404Z,23.10
2022-11-16T04:15:49.712Z,22.40
2022-11-16T04:18:36.175Z,23.80
2022-11-16T04:21:27.167Z,24.07
2022-11-16T04:24:14.126Z,22.93
2022-11-16T04:27:04.352Z,24.00
2022-11-16T04:29:33.889Z,22.40
2022-11-16T04:32:20.157Z,22.20
2022-11-16T04:35:06.746Z,24.90
2022-11-16T04:37:50.399Z,21.43
2022-11-16T04:40:26.556Z,20.70
2022-11-16T04:42:55.337Z,22.83
2022-11-16T04:45:43.724Z,21.40
2022-11-16T04:48:15.085Z,19.07
2022-11-16T04:50:44.591Z,21.17
2022-11-16T04:53:15.188Z,19.10
2022-11-16T04:55:55.473Z,20.37
2022-11-16T04:58:28.781Z,18.67
2022-11-16T05:00:57.947Z,20.43
2022-11-16T05:03:26.685Z,18.20
2022-11-16T05:05:55.740Z,18.23
2022-11-16T05:08:26.980Z,18.60
2022-11-16T05:10:56.976Z,16.00
2022-11-16T05:13:26.007Z,17.20
2022-11-16T05:15:55.146Z,15.87
2022-11-16T05:18:24.384Z,16.30
2022-11-16T05:21:01.672Z,14.70
2022-11-16T05:23:56.603Z,16.67
2022-11-16T05:26:28.315Z,16.33
2022-11-16T05:28:57.447Z,17.10
2022-11-16T05:31:26.243Z,16.13
2022-11-16T05:33:55.297Z,16.70
2022-11-16T05:36:24.334Z,16.57
2022-11-16T05:38:56.387Z,16.30
2022-11-16T05:41:29.303Z,14.80
2022-11-16T05:44:00.417Z,16.80
2022-11-16T05:46:29.314Z,14.60
2022-11-16T05:49:00.988Z,15.33
2022-11-16T05:51:29.821Z,15.13
2022-11-16T05:54:02.042Z,14.50
2022-11-16T05:56:31.333Z,14.10
2022-11-16T05:59:00.671Z,14.10
2022-11-16T06:01:29.591Z,15.37
2022-11-16T06:04:01.436Z,14.57
2022-11-16T06:06:31.326Z,13.43
2022-11-16T06:09:01.783Z,14.40
2022-11-16T06:11:35.953Z,14.43
2022-11-16T06:14:05.514Z,14.23
2022-11-16T06:16:35.593Z,13.93
2022-11-16T06:19:08.353Z,13.70
2022-11-16T06:21:38.092Z,13.00
2022-11-16T06:24:12.746Z,12.03
2022-11-16T06:26:41.654Z,13.40
2022-11-16T06:29:10.483Z,12.27
2022-11-16T06:31:39.297Z,12.13
2022-11-16T06:34:09.076Z,12.40
2022-11-16T06:36:37.911Z,11.43
2022-11-16T06:39:06.806Z,11.83
2022-11-16T06:41:41.595Z,11.13
2022-11-16T06:44:13.219Z,10.80
2022-11-16T06:46:51.375Z,10.77
2022-11-16T06:49:20.948Z,11.40
2022-11-16T06:51:51.686Z,10.30
2022-11-16T06:54:21.093Z,10.10
2022-11-16T06:56:51.894Z,10.63
2022-11-16T06:59:20.952Z,10.83
2022-11-16T07:01:49.856Z,10.70
2022-11-16T07:04:19.195Z,11.00
2022-11-16T07:06:54.353Z,9.60
2022-11-16T07:09:23.501Z,11.73
2022-11-16T07:11:53.626Z,11.27
2022-11-16T07:14:23.232Z,10.20
2022-11-16T07:16:56.417Z,10.77
2022-11-16T07:19:28.386Z,9.03
2022-11-16T07:21:57.547Z,9.17
2022-11-16T07:24:26.388Z,9.30
2022-11-16T07:26:56.526Z,8.87
2022-11-16T07:29:27.782Z,8.10
2022-11-16T07:32:14.905Z,7.70
2022-11-16T07:35:00.758Z,8.70
2022-11-16T07:37:30.401Z,8.60
2022-11-16T07:39:59.616Z,7.13
2022-11-16T07:42:29.832Z,8.23
2022-11-16T07:45:22.415Z,7.87
2022-11-16T07:47:59.549Z,7.90
2022-11-16T07:51:02.314Z,7.40
2022-11-16T07:53:32.834Z,7.50
2022-11-16T07:56:02.077Z,7.20
2022-11-16T07:58:35.884Z,7.53
2022-11-16T08:01:06.605Z,7.07
2022-11-16T08:03:37.624Z,6.80
2022-11-16T08:06:09.496Z,6.63
2022-11-16T08:08:38.566Z,6.70
2022-11-16T08:11:08.793Z,7.00
2022-11-16T08:13:40.829Z,6.20
2022-11-16T08:16:13.036Z,6.53
2022-11-16T08:18:43.054Z,5.90
2022-11-16T08:21:14.096Z,6.60
2022-11-16T08:23:44.994Z,6.57
2022-11-16T08:26:16.567Z,6.17
2022-11-16T08:28:53.998Z,6.00
2022-11-16T08:31:29.237Z,5.10
2022-11-16T08:34:20.384Z,5.17
2022-11-16T08:36:53.096Z,5.77
2022-11-16T08:39:27.749Z,5.53
2022-11-16T08:41:56.653Z,5.27
2022-11-16T08:44:27.029Z,4.93
2022-11-16T08:46:59.122Z,4.90
2022-11-16T08:49:35.732Z,5.27
2022-11-16T08:52:04.841Z,4.90
2022-11-16T08:54:34.504Z,5.07
2022-11-16T08:57:03.025Z,5.03
2022-11-16T08:59:35.742Z,4.40
2022-11-16T09:02:11.501Z,4.63
2022-11-16T09:04:40.262Z,4.03
2022-11-16T09:07:09.192Z,4.50
2022-11-16T09:09:38.160Z,4.47
2022-11-16T09:12:07.313Z,4.83
2022-11-16T09:14:37.289Z,4.17
2022-11-16T09:17:06.480Z,4.30
2022-11-16T09:19:35.317Z,4.50
2022-11-16T09:22:03.904Z,4.30
2022-11-16T09:24:32.655Z,4.37
2022-11-16T09:27:02.496Z,4.37
2022-11-16T09:29:31.394Z,4.67
2022-11-16T09:32:02.324Z,4.23
2022-11-16T09:34:30.882Z,4.70
2022-11-16T09:36:59.600Z,4.43
2022-11-16T09:39:32.455Z,4.30
2022-11-16T09:42:14.888Z,3.60
2022-11-16T09:44:58.795Z,4.10
2022-11-16T09:47:46.472Z,3.60
2022-11-16T09:50:35.780Z,3.63
2022-11-16T09:53:15.670Z,2.77
2022-11-16T09:55:48.653Z,3.37
2022-11-16T09:58:22.055Z,3.00
2022-11-16T10:00:54.650Z,3.37
2022-11-16T10:03:26.637Z,3.07
2022-11-16T10:06:02.897Z,2.70
2022-11-16T10:08:43.512Z,3.23
2022-11-16T10:11:29.399Z,3.10
2022-11-16T10:14:05.558Z,3.63
2022-11-16T10:16:38.995Z,3.47
2022-11-16T10:19:14.932Z,3.17
2022-11-16T10:21:52.160Z,3.27
2022-11-16T10:24:27.140Z,3.20
2022-11-16T10:27:05.451Z,2.63
2022-11-16T10:29:42.255Z,2.90
2022-11-16T10:32:18.223Z,2.93
2022-11-16T10:34:52.545Z,2.73
2022-11-16T10:37:22.208Z,2.57
2022-11-16T10:39:53.266Z,2.70
2022-11-16T10:42:26.743Z,3.20
2022-11-16T10:45:00.182Z,3.40
2022-11-16T10:47:35.155Z,3.10
2022-11-16T10:50:10.553Z,3.47
2022-11-16T10:52:39.427Z,4.37
2022-11-16T10:55:09.044Z,3.80
2022-11-16T10:57:56.767Z,3.53
2022-11-16T11:00:43.925Z,3.90
2022-11-16T11:03:12.806Z,4.27
2022-11-16T11:05:53.607Z,4.50
2022-11-16T11:08:31.829Z,4.63
2022-11-16T11:11:22.908Z,5.23
2022-11-16T11:14:06.156Z,4.80
2022-11-16T11:16:34.460Z,5.37
2022-11-16T11:19:20.289Z,4.50
2022-11-16T11:21:50.562Z,5.23
2022-11-16T11:27:08.643Z,5.10
2022-11-16T11:29:38.958Z,5.50
2022-11-16T11:32:09.879Z,6.27
2022-11-16T11:34:42.258Z,6.17
2022-11-16T11:37:17.412Z,5.93
2022-11-16T11:39:46.595Z,6.93
2022-11-16T11:42:24.241Z,6.67
2022-11-16T11:44:57.471Z,6.67
2022-11-16T11:47:59.093Z,6.33
2022-11-16T11:50:38.487Z,6.93
2022-11-16T11:53:12.049Z,6.57
2022-11-16T11:55:41.152Z,6.27
2022-11-16T11:58:16.699Z,6.40
2022-11-16T12:00:53.086Z,6.20
2022-11-16T12:03:39.999Z,6.43
2022-11-16T12:06:12.650Z,6.40
2022-11-16T12:08:58.383Z,6.90
2022-11-16T12:11:33.900Z,6.60
2022-11-16T12:14:11.547Z,6.87
2022-11-16T12:16:46.588Z,6.97
2022-11-16T12:19:46.613Z,6.70
2022-11-16T12:22:29.120Z,6.87
2022-11-16T12:25:11.456Z,6.40
2022-11-16T12:27:44.410Z,6.87
2022-11-16T12:30:16.287Z,6.37
2022-11-16T12:32:54.640Z,6.77
2022-11-16T12:35:49.939Z,6.43
2022-11-16T12:38:37.340Z,6.20
2022-11-16T12:41:25.536Z,6.17
2022-11-16T12:43:59.767Z,5.93
2022-11-16T12:46:35.974Z,6.13
2022-11-16T12:49:24.965Z,6.53
2022-11-16T12:52:02.999Z,6.23
2022-11-16T12:57:59.414Z,6.40
2022-11-16T13:00:28.385Z,6.33
2022-11-16T13:03:02.871Z,5.97
2022-11-16T13:05:41.801Z,5.53
2022-11-16T13:08:14.951Z,5.23
2022-11-16T13:10:46.601Z,5.93
2022-11-16T13:13:39.839Z,5.20
2022-11-16T13:16:08.778Z,6.30
2022-11-16T13:18:41.487Z,5.63
2022-11-16T13:21:17.895Z,5.13
2022-11-16T13:23:53.109Z,5.83
2022-11-16T13:26:24.336Z,5.80
2022-11-16T13:28:59.797Z,5.37
2022-11-16T13:31:33.079Z,5.10
2022-11-16T13:34:03.809Z,5.23
2022-11-16T13:36:45.429Z,5.43
2022-11-16T13:39:21.843Z,4.27
2022-11-16T13:41:52.150Z,4.70
2022-11-16T13:44:30.535Z,4.00
2022-11-16T13:47:04.583Z,4.33
2022-11-16T13:49:35.894Z,3.63
2022-11-16T13:52:22.739Z,3.83
2022-11-16T13:54:54.953Z,3.50
2022-11-16T13:57:26.511Z,4.63
2022-11-16T14:00:11.214Z,3.97
2022-11-16T14:02:41.688Z,3.27
2022-11-16T14:05:17.631Z,4.10
2022-11-16T14:07:49.880Z,4.70
2022-11-16T14:10:56.282Z,3.50
2022-11-16T14:13:42.385Z,4.10
2022-11-16T14:16:45.477Z,3.70
2022-11-16T14:19:53.043Z,3.40
2022-11-16T14:22:44.642Z,3.60
2022-11-16T14:25:25.990Z,3.00
2022-11-16T14:28:00.824Z,3.17
2022-11-16T14:30:33.783Z,3.23
2022-11-16T14:33:04.149Z,3.30
2022-11-16T14:35:36.884Z,2.90
2022-11-16T14:38:08.095Z,3.40
2022-11-16T14:40:45.097Z,3.27
2022-11-16T14:43:18.860Z,3.17
2022-11-16T14:45:49.688Z,3.90
2022-11-16T14:48:21.587Z,3.93
2022-11-16T14:51:02.211Z,3.83
2022-11-16T14:53:31.200Z,4.20
2022-11-16T14:56:12.165Z,4.13
2022-11-16T14:58:41.460Z,4.53
2022-11-16T15:01:15.730Z,3.90
2022-11-16T15:03:58.580Z,4.37
2022-11-16T15:06:28.105Z,4.20
2022-11-16T15:09:00.474Z,4.40
2022-11-16T15:11:45.032Z,4.30
2022-11-16T15:14:18.965Z,4.70
2022-11-16T15:16:52.428Z,4.43
2022-11-16T15:19:23.432Z,4.10
2022-11-16T15:21:53.644Z,4.97
2022-11-16T15:24:31.344Z,4.63
2022-11-16T15:27:10.682Z,4.63
2022-11-16T15:29:39.552Z,4.50
2022-11-16T15:32:14.478Z,4.90
2022-11-16T15:34:47.633Z,5.00
2022-11-16T15:37:20.687Z,4.60
2022-11-16T15:39:49.487Z,4.93
2022-11-16T15:42:18.180Z,4.53
2022-11-16T15:44:47.480Z,4.33
2022-11-16T15:47:16.386Z,4.83
2022-11-16T15:49:49.833Z,4.70
2022-11-16T15:52:42.652Z,4.83
2022-11-16T15:55:40.243Z,4.60
2022-11-16T15:58:15.653Z,4.70
2022-11-16T16:00:49.214Z,5.13
2022-11-16T16:03:28.096Z,5.77
2022-11-16T16:05:58.206Z,5.07
2022-11-16T16:08:32.614Z,5.33
2022-11-16T16:11:10.136Z,4.77
2022-11-16T16:13:41.624Z,5.03
2022-11-16T16:16:31.842Z,4.70
2022-11-16T16:19:08.337Z,4.40
2022-11-16T16:21:45.874Z,4.90
2022-11-16T16:24:36.409Z,4.63
2022-11-16T16:27:18.102Z,4.63
2022-11-16T16:29:47.973Z,4.73
2022-11-16T16:32:25.719Z,4.37
2022-11-16T16:34:57.571Z,3.90
2022-11-16T16:37:30.029Z,3.80
2022-11-16T16:39:58.964Z,4.33
2022-11-16T16:42:27.872Z,4.13
2022-11-16T16:44:56.316Z,3.67
2022-11-16T16:47:25.139Z,3.63
2022-11-16T16:49:54.652Z,3.20
2022-11-16T16:52:23.807Z,3.30
2022-11-16T16:54:53.719Z,2.97
2022-11-16T16:57:22.388Z,2.67
2022-11-16T16:59:51.123Z,2.50
2022-11-16T17:02:20.594Z,2.80
2022-11-16T17:04:49.191Z,3.13
2022-11-16T17:07:18.173Z,2.63
2022-11-16T17:09:47.124Z,2.10
2022-11-16T17:12:17.123Z,2.00
2022-11-16T17:14:51.784Z,1.70
2022-11-16T17:17:20.954Z,2.00
2022-11-16T17:19:49.750Z,2.00
2022-11-16T17:22:19.043Z,1.60
2022-11-16T17:24:47.901Z,1.73
2022-11-16T17:27:18.806Z,1.60
2022-11-16T17:29:47.577Z,1.70
2022-11-16T17:32:16.281Z,1.87
2022-11-16T17:34:45.511Z,1.80
2022-11-16T17:37:14.932Z,2.10
2022-11-16T17:39:43.864Z,2.03
2022-11-16T17:42:12.624Z,1.97
2022-11-16T17:44:43.281Z,1.90
2022-11-16T17:47:11.919Z,1.83
2022-11-16T17:49:40.609Z,1.83
2022-11-16T17:52:10.452Z,1.87
2022-11-16T17:54:39.260Z,1.97
2022-11-16T17:57:08.543Z,1.73
2022-11-16T17:59:37.116Z,2.10
2022-11-16T18:02:07.342Z,1.70
2022-11-16T18:04:35.978Z,1.70
2022-11-16T18:07:04.866Z,1.77
2022-11-16T18:09:33.558Z,1.63
2022-11-16T18:12:02.229Z,1.90
2022-11-16T18:14:32.033Z,1.43
2022-11-16T18:17:01.168Z,1.80
2022-11-16T18:19:31.444Z,1.40
2022-11-16T18:22:00.711Z,1.27
2022-11-16T18:24:29.606Z,1.47
2022-11-16T18:26:58.688Z,1.50
2022-11-16T18:29:27.877Z,1.37
2022-11-16T18:31:57.183Z,1.60
2022-11-16T18:34:26.954Z,1.20
2022-11-16T18:36:57.742Z,1.10
2022-11-16T18:39:27.159Z,1.30
2022-11-16T18:41:56.397Z,1.50
2022-11-16T18:44:25.373Z,1.50
2022-11-16T18:46:54.312Z,1.40
2022-11-16T18:49:23.555Z,1.07
2022-11-16T18:51:52.816Z,1.20
2022-11-16T18:54:23.045Z,1.37
2022-11-16T18:56:51.978Z,1.17
2022-11-16T18:59:20.996Z,1.30
2022-11-16T19:01:50.239Z,1.50
2022-11-16T19:04:19.169Z,1.30
2022-11-16T19:06:48.583Z,1.20
2022-11-16T19:09:18.446Z,1.30
2022-11-16T19:11:50.916Z,1.17
2022-11-16T19:14:20.425Z,1.10
2022-11-16T19:16:55.685Z,1.30
2022-11-16T19:19:28.078Z,1.03
2022-11-16T19:21:57.734Z,1.40
2022-11-16T19:24:26.754Z,1.30
2022-11-16T19:26:57.510Z,1.80
2022-11-16T19:29:27.152Z,1.40
2022-11-16T19:31:56.788Z,1.53
2022-11-16T19:34:31.992Z,1.30
2022-11-16T19:37:02.715Z,1.50
2022-11-16T19:39:31.849Z,1.40
2022-11-16T19:42:02.776Z,1.40
2022-11-16T19:44:32.100Z,1.60
2022-11-16T19:47:01.439Z,1.80
2022-11-16T19:49:30.615Z,1.67
2022-11-16T19:52:00.603Z,1.90
2022-11-16T19:54:30.874Z,1.70
2022-11-16T19:57:02.015Z,1.77
2022-11-16T19:59:31.169Z,1.63
2022-11-16T20:02:00.408Z,1.50
2022-11-16T20:04:33.678Z,1.57
2022-11-16T20:07:03.209Z,1.53
2022-11-16T20:09:33.763Z,1.77
2022-11-16T20:12:05.361Z,1.97
2022-11-16T20:14:34.797Z,2.10
2022-11-16T20:17:05.226Z,1.60
2022-11-16T20:19:34.108Z,1.77
2022-11-16T20:22:03.179Z,1.73
2022-11-16T20:24:33.043Z,2.43
2022-11-16T20:27:03.604Z,1.80
2022-11-16T20:29:32.521Z,2.17
2022-11-16T20:32:01.256Z,1.77
2022-11-16T20:34:30.906Z,2.20
2022-11-16T20:37:00.752Z,1.83
2022-11-16T20:39:29.571Z,1.80
2022-11-16T20:41:58.897Z,1.70
2022-11-16T20:44:31.576Z,2.13
2022-11-16T20:47:01.984Z,1.70
2022-11-16T20:49:30.833Z,1.73
2022-11-16T20:51:59.715Z,1.90
2022-11-16T20:54:29.134Z,2.00
2022-11-16T20:56:58.157Z,2.10
2022-11-16T20:59:28.427Z,1.90
2022-11-16T21:01:57.243Z,2.20
2022-11-16T21:04:27.620Z,1.70
2022-11-16T21:06:56.598Z,1.97
2022-11-16T21:09:25.862Z,2.10
2022-11-16T21:12:12.672Z,2.00
2022-11-16T21:14:43.056Z,2.07
2022-11-16T21:17:12.298Z,1.97
2022-11-16T21:19:54.292Z,1.60
2022-11-16T21:22:32.384Z,2.20
2022-11-16T21:25:02.386Z,2.50
2022-11-16T21:27:31.821Z,2.40
2022-11-16T21:30:02.112Z,2.30
2022-11-16T21:32:30.965Z,2.40
2022-11-16T21:35:00.323Z,2.33
2022-11-16T21:37:29.359Z,2.10
2022-11-16T21:39:58.976Z,2.30
2022-11-16T21:42:28.470Z,2.30
2022-11-16T21:44:57.834Z,2.07
2022-11-16T21:47:29.554Z,2.03
2022-11-16T21:50:29.950Z,2.53
2022-11-16T21:52:48.308Z,2.33
2022-11-16T21:55:17.851Z,2.50
2022-11-16T21:57:47.080Z,2.23
2022-11-16T22:00:17.028Z,2.20
2022-11-16T22:02:48.396Z,2.40
2022-11-16T22:05:35.371Z,2.00
2022-11-16T22:08:06.908Z,2.00
2022-11-16T22:10:36.433Z,3.00
2022-11-16T22:13:06.067Z,2.40
2022-11-16T22:15:35.289Z,2.70
2022-11-16T22:18:06.943Z,2.47
2022-11-16T22:20:36.397Z,2.70
2022-11-16T22:23:05.472Z,2.27
2022-11-16T22:25:34.824Z,2.53
2022-11-16T22:28:21.249Z,2.60
2022-11-16T22:30:52.213Z,2.83
2022-11-16T22:33:22.545Z,2.70
2022-11-16T22:35:51.683Z,2.87
2022-11-16T22:38:21.382Z,2.83
2022-11-16T22:40:52.746Z,3.20
2022-11-16T22:43:22.167Z,3.00
2022-11-16T22:45:51.424Z,3.47
2022-11-16T22:48:22.009Z,3.50
2022-11-16T22:50:51.277Z,3.30
2022-11-16T22:53:20.374Z,3.00
2022-11-16T22:55:49.559Z,2.97
2022-11-16T22:58:18.818Z,3.40
2022-11-16T23:00:47.632Z,3.13
2022-11-16T23:03:17.106Z,3.27
2022-11-16T23:05:47.497Z,3.23
2022-11-16T23:08:16.831Z,3.37
2022-11-16T23:10:59.708Z,3.27
2022-11-16T23:13:45.979Z,3.30
2022-11-16T23:16:15.488Z,3.20
2022-11-16T23:18:45.014Z,3.03
2022-11-16T23:21:32.425Z,3.37
2022-11-16T23:24:21.502Z,2.80
2022-11-16T23:27:07.918Z,3.37
2022-11-16T23:29:37.304Z,3.07
2022-11-16T23:32:07.086Z,3.37
2022-11-16T23:34:36.091Z,3.40
2022-11-16T23:37:07.350Z,2.73
2022-11-16T23:39:37.087Z,3.13
2022-11-16T23:42:24.251Z,2.60
2022-11-16T23:44:53.764Z,3.50
2022-11-16T23:47:23.693Z,2.93
2022-11-16T23:49:53.131Z,3.07
2022-11-16T23:52:23.769Z,2.90
2022-11-16T23:54:52.842Z,3.30
2022-11-16T23:57:21.656Z,3.60
2022-11-16T23:59:51.052Z,2.90
